createdAt,value
2024-03-03T00:00:14.180Z,40.10
2024-03-03T00:02:44.729Z,41.57
2024-03-03T00:05:14.748Z,38.33
2024-03-03T00:07:44.715Z,39.90
2024-03-03T00:10:14.194Z,40.80
2024-03-03T00:12:43.505Z,42.43
2024-03-03T00:15:13.451Z,40.70
2024-03-03T00:17:44.040Z,39.47
2024-03-03T00:20:14.604Z,41.13
2024-03-03T00:22:43.816Z,41.27
2024-03-03T00:25:13.876Z,42.20
2024-03-03T00:27:43.189Z,39.70
2024-03-03T00:30:13.714Z,43.60
2024-03-03T00:32:47.718Z,41.63
2024-03-03T00:35:17.338Z,42.87
2024-03-03T00:37:46.402Z,43.13
2024-03-03T00:40:15.918Z,41.50
2024-03-03T00:42:45.266Z,41.93
2024-03-03T00:45:14.559Z,42.80
2024-03-03T00:47:45.554Z,41.60
2024-03-03T00:50:16.497Z,41.87
2024-03-03T00:52:45.661Z,42.63
2024-03-03T00:55:15.560Z,46.77
2024-03-03T00:57:45.010Z,43.53
2024-03-03T01:00:15.005Z,43.33
2024-03-03T01:02:44.697Z,45.40
2024-03-03T01:05:16.049Z,44.73
2024-03-03T01:07:45.290Z,42.80
2024-03-03T01:10:14.882Z,45.27
2024-03-03T01:12:43.875Z,46.20
2024-03-03T01:15:13.265Z,45.43
2024-03-03T01:17:42.897Z,47.60
2024-03-03T01:20:13.614Z,48.27
2024-03-03T01:22:44.548Z,47.40
2024-03-03T01:25:13.610Z,45.67
2024-03-03T01:27:42.874Z,47.73
2024-03-03T01:30:12.851Z,46.90
2024-03-03T01:32:41.904Z,48.30
2024-03-03T01:35:11.503Z,49.50
2024-03-03T01:37:40.651Z,49.23
2024-03-03T01:40:14.137Z,49.00
2024-03-03T01:42:43.694Z,48.63
2024-03-03T01:45:25.859Z,48.53
2024-03-03T01:47:56.529Z,49.40
2024-03-03T01:50:28.518Z,51.40
2024-03-03T01:52:58.271Z,50.30
2024-03-03T01:55:29.122Z,50.77
2024-03-03T01:58:04.211Z,50.33
2024-03-03T02:00:36.814Z,52.03
2024-03-03T02:03:09.664Z,50.73
2024-03-03T02:05:40.665Z,49.77
2024-03-03T02:08:10.260Z,51.27
2024-03-03T02:10:41.564Z,48.80
2024-03-03T02:13:11.439Z,51.83
2024-03-03T02:15:40.900Z,51.87
2024-03-03T02:18:10.925Z,48.63
2024-03-03T02:20:41.157Z,51.57
2024-03-03T02:23:11.885Z,51.10
2024-03-03T02:25:42.467Z,49.57
2024-03-03T02:28:12.756Z,54.30
2024-03-03T02:30:42.502Z,50.17
2024-03-03T02:33:12.658Z,50.97
2024-03-03T02:35:41.926Z,51.27
2024-03-03T02:38:13.018Z,50.03
2024-03-03T02:40:42.540Z,50.53
2024-03-03T02:43:11.909Z,48.47
2024-03-03T02:45:41.614Z,50.43
2024-03-03T02:48:11.948Z,51.03
2024-03-03T02:50:41.635Z,51.13
2024-03-03T02:53:12.967Z,49.70
2024-03-03T02:55:43.418Z,49.27
2024-03-03T02:58:13.784Z,49.83
2024-03-03T03:00:43.257Z,51.87
2024-03-03T03:03:12.936Z,49.13
2024-03-03T03:06:00.165Z,52.10
2024-03-03T03:08:37.128Z,52.33
2024-03-03T03:11:08.162Z,49.50
2024-03-03T03:13:40.301Z,52.10
2024-03-03T03:16:11.765Z,53.20
2024-03-03T03:18:41.833Z,50.83
2024-03-03T03:21:11.640Z,53.07
2024-03-03T03:23:44.326Z,52.57
2024-03-03T03:26:14.601Z,51.33
2024-03-03T03:28:45.029Z,54.10
2024-03-03T03:31:14.389Z,53.73
2024-03-03T03:33:44.464Z,54.57
2024-03-03T03:36:15.239Z,53.23
2024-03-03T03:38:46.861Z,52.70
2024-03-03T03:41:25.507Z,52.87
2024-03-03T03:43:55.799Z,53.17
2024-03-03T03:46:24.926Z,51.30
2024-03-03T03:48:54.459Z,54.00
2024-03-03T03:51:24.153Z,53.37
2024-03-03T03:53:56.436Z,57.40
2024-03-03T03:56:26.500Z,56.57
2024-03-03T03:58:56.296Z,57.57
2024-03-03T04:01:26.316Z,58.90
2024-03-03T04:03:57.180Z,58.67
2024-03-03T04:06:28.452Z,60.67
2024-03-03T04:09:00.242Z,61.73
2024-03-03T04:11:30.031Z,61.13
2024-03-03T04:14:05.773Z,63.40
2024-03-03T04:16:35.593Z,63.53
2024-03-03T04:19:05.070Z,65.17
2024-03-03T04:21:35.155Z,63.30
2024-03-03T04:24:07.614Z,66.00
2024-03-03T04:26:37.210Z,65.57
2024-03-03T04:29:06.742Z,65.63
2024-03-03T04:31:36.101Z,65.63
2024-03-03T04:34:05.658Z,68.03
2024-03-03T04:36:35.259Z,66.17
2024-03-03T04:39:04.803Z,66.67
2024-03-03T04:41:35.934Z,68.33
2024-03-03T04:44:06.657Z,65.87
2024-03-03T04:46:37.323Z,66.07
2024-03-03T04:49:08.503Z,67.37
2024-03-03T04:51:38.352Z,66.30
2024-03-03T04:54:08.731Z,68.13
2024-03-03T04:56:39.103Z,65.73
2024-03-03T04:59:09.113Z,64.97
2024-03-03T05:01:44.230Z,68.07
2024-03-03T05:04:14.975Z,68.00
2024-03-03T05:06:49.938Z,68.30
2024-03-03T05:09:20.180Z,69.43
2024-03-03T05:11:50.945Z,68.97
2024-03-03T05:14:21.093Z,69.37
2024-03-03T05:16:50.313Z,67.10
2024-03-03T05:19:19.636Z,69.13
2024-03-03T05:21:49.363Z,69.77
2024-03-03T05:24:18.806Z,70.33
2024-03-03T05:26:50.025Z,67.20
2024-03-03T05:29:19.307Z,69.50
2024-03-03T05:31:48.874Z,67.77
2024-03-03T05:34:18.285Z,67.80
2024-03-03T05:36:48.781Z,64.67
2024-03-03T05:39:18.764Z,65.20
2024-03-03T05:41:49.820Z,69.30
2024-03-03T05:44:19.140Z,65.50
2024-03-03T05:46:48.822Z,65.63
2024-03-03T05:49:18.221Z,67.17
2024-03-03T05:51:47.534Z,65.57
2024-03-03T05:54:17.022Z,68.97
2024-03-03T05:56:47.799Z,67.07
2024-03-03T05:59:24.156Z,64.47
2024-03-03T06:01:55.573Z,60.90
2024-03-03T06:04:25.247Z,65.20
2024-03-03T06:06:54.600Z,62.63
2024-03-03T06:09:24.436Z,64.63
2024-03-03T06:11:53.608Z,64.53
2024-03-03T06:14:25.148Z,65.17
2024-03-03T06:16:54.498Z,64.33
2024-03-03T06:19:24.303Z,65.73
2024-03-03T06:21:54.006Z,66.80
2024-03-03T06:24:22.998Z,63.57
2024-03-03T06:26:53.200Z,64.83
2024-03-03T06:29:23.845Z,65.73
2024-03-03T06:31:53.043Z,65.77
2024-03-03T06:34:22.139Z,60.33
2024-03-03T06:36:51.951Z,66.40
2024-03-03T06:39:21.064Z,65.43
2024-03-03T06:41:50.000Z,62.00
2024-03-03T06:44:19.444Z,65.30
2024-03-03T06:46:49.678Z,64.93
2024-03-03T06:49:18.866Z,60.70
2024-03-03T06:51:50.197Z,62.87
2024-03-03T06:54:19.489Z,65.90
2024-03-03T06:56:48.961Z,65.27
2024-03-03T06:59:18.248Z,65.70
2024-03-03T07:01:49.443Z,66.77
2024-03-03T07:04:25.738Z,64.87
2024-03-03T07:06:56.003Z,66.27
2024-03-03T07:09:25.778Z,63.67
2024-03-03T07:11:56.636Z,61.90
2024-03-03T07:14:27.582Z,65.67
2024-03-03T07:16:58.750Z,66.07
2024-03-03T07:19:28.129Z,65.30
2024-03-03T07:21:57.697Z,64.47
2024-03-03T07:24:26.819Z,64.77
2024-03-03T07:26:56.021Z,64.50
2024-03-03T07:29:30.935Z,66.00
2024-03-03T07:32:04.989Z,62.90
2024-03-03T07:34:34.296Z,64.60
2024-03-03T07:37:03.719Z,63.83
2024-03-03T07:39:32.935Z,66.27
2024-03-03T07:42:03.971Z,59.13
2024-03-03T07:44:33.539Z,64.07
2024-03-03T07:47:04.802Z,61.90
2024-03-03T07:49:33.876Z,61.90
2024-03-03T07:52:02.965Z,62.80
2024-03-03T07:54:31.906Z,62.93
2024-03-03T07:57:04.220Z,61.50
2024-03-03T07:59:33.260Z,63.43
2024-03-03T08:02:04.324Z,60.47
2024-03-03T08:04:34.498Z,63.43
2024-03-03T08:07:04.658Z,62.03
2024-03-03T08:09:34.003Z,63.27
2024-03-03T08:12:08.443Z,60.87
2024-03-03T08:14:37.821Z,65.50
2024-03-03T08:17:08.829Z,61.13
2024-03-03T08:19:38.392Z,60.47
2024-03-03T08:22:07.938Z,61.17
2024-03-03T08:24:37.405Z,60.87
2024-03-03T08:27:07.040Z,60.80
2024-03-03T08:29:36.032Z,58.40
2024-03-03T08:32:08.505Z,59.97
2024-03-03T08:34:37.758Z,57.33
2024-03-03T08:37:07.042Z,58.87
2024-03-03T08:39:37.050Z,56.30
2024-03-03T08:42:06.707Z,57.13
2024-03-03T08:44:35.698Z,55.77
2024-03-03T08:47:05.509Z,56.43
2024-03-03T08:49:36.192Z,56.20
2024-03-03T08:52:07.205Z,54.17
2024-03-03T08:54:37.703Z,51.87
2024-03-03T08:57:10.572Z,51.93
2024-03-03T08:59:40.364Z,51.87
2024-03-03T09:02:09.673Z,49.40
2024-03-03T09:04:40.726Z,49.37
2024-03-03T09:07:10.015Z,49.40
2024-03-03T09:09:42.384Z,49.00
2024-03-03T09:12:13.305Z,50.07
2024-03-03T09:14:42.976Z,47.17
2024-03-03T09:17:12.924Z,47.63
2024-03-03T09:19:43.428Z,46.23
2024-03-03T09:22:12.732Z,45.17
2024-03-03T09:24:44.348Z,44.07
2024-03-03T09:27:13.406Z,43.27
2024-03-03T09:29:43.093Z,44.40
2024-03-03T09:32:13.069Z,44.30
2024-03-03T09:34:43.944Z,45.40
2024-03-03T09:37:47.769Z,44.37
2024-03-03T09:40:25.166Z,44.73
2024-03-03T09:42:56.816Z,43.70
2024-03-03T09:45:31.536Z,44.37
2024-03-03T09:48:05.061Z,43.87
2024-03-03T09:50:35.501Z,43.80
2024-03-03T09:53:08.848Z,46.00
2024-03-03T09:55:39.857Z,45.10
2024-03-03T09:58:11.911Z,44.13
2024-03-03T10:00:42.308Z,43.53
2024-03-03T10:03:12.770Z,44.83
2024-03-03T10:05:44.329Z,42.53
2024-03-03T10:08:15.715Z,43.10
2024-03-03T10:10:48.665Z,43.07
2024-03-03T10:13:19.201Z,44.17
2024-03-03T10:15:49.035Z,42.63
2024-03-03T10:18:21.993Z,42.60
2024-03-03T10:20:53.972Z,42.70
2024-03-03T10:23:25.287Z,41.77
2024-03-03T10:25:59.182Z,43.03
2024-03-03T10:28:29.026Z,42.67
2024-03-03T10:31:14.653Z,42.77
2024-03-03T10:33:58.641Z,43.27
2024-03-03T10:36:30.155Z,43.47
2024-03-03T10:38:59.651Z,43.20
2024-03-03T10:41:28.803Z,41.43
2024-03-03T10:43:58.839Z,41.97
2024-03-03T10:46:29.139Z,41.03
2024-03-03T10:48:59.116Z,40.93
2024-03-03T10:51:32.572Z,40.53
2024-03-03T10:54:02.037Z,40.53
2024-03-03T10:56:32.940Z,39.97
2024-03-03T10:59:06.117Z,41.27
2024-03-03T11:01:36.849Z,39.70
2024-03-03T11:04:08.601Z,40.47
2024-03-03T11:06:40.812Z,39.60
2024-03-03T11:09:12.416Z,37.10
2024-03-03T11:11:48.291Z,39.50
2024-03-03T11:14:19.330Z,39.97
2024-03-03T11:16:53.933Z,39.37
2024-03-03T11:19:32.377Z,37.43
2024-03-03T11:22:05.828Z,36.23
2024-03-03T11:24:42.783Z,35.27
2024-03-03T11:27:17.226Z,35.57
2024-03-03T11:29:48.270Z,34.33
2024-03-03T11:32:19.016Z,36.67
2024-03-03T11:34:49.672Z,35.53
2024-03-03T11:37:22.020Z,36.53
2024-03-03T11:39:56.994Z,34.77
2024-03-03T11:42:40.147Z,35.10
2024-03-03T11:45:12.672Z,36.27
2024-03-03T11:47:49.097Z,35.60
2024-03-03T11:50:25.997Z,36.13
2024-03-03T11:52:56.488Z,34.37
2024-03-03T11:55:28.481Z,36.63
2024-03-03T11:58:00.657Z,33.47
2024-03-03T12:00:31.794Z,33.87
2024-03-03T12:03:02.794Z,33.60
2024-03-03T12:05:32.643Z,32.63
2024-03-03T12:08:07.954Z,32.47
2024-03-03T12:10:37.800Z,34.00
2024-03-03T12:13:08.445Z,34.27
2024-03-03T12:15:38.465Z,35.63
2024-03-03T12:18:12.728Z,34.10
2024-03-03T12:20:44.804Z,34.13
2024-03-03T12:23:17.262Z,36.27
2024-03-03T12:25:46.700Z,34.10
2024-03-03T12:28:16.619Z,34.70
2024-03-03T12:30:46.482Z,35.57
2024-03-03T12:33:15.934Z,35.70
2024-03-03T12:35:46.768Z,34.80
2024-03-03T12:38:17.538Z,34.27
2024-03-03T12:40:46.943Z,35.17
2024-03-03T12:43:17.330Z,31.30
2024-03-03T12:45:47.185Z,32.87
2024-03-03T12:48:16.865Z,34.13
2024-03-03T12:51:01.288Z,35.90
2024-03-03T12:53:40.965Z,35.00
2024-03-03T12:56:20.628Z,34.37
2024-03-03T12:58:50.627Z,34.67
2024-03-03T13:01:20.549Z,35.73
2024-03-03T13:03:55.014Z,35.70
2024-03-03T13:06:24.308Z,34.97
2024-03-03T13:08:55.244Z,34.63
2024-03-03T13:11:25.182Z,33.03
2024-03-03T13:13:57.863Z,32.93
2024-03-03T13:16:30.475Z,34.17
2024-03-03T13:19:00.684Z,33.87
2024-03-03T13:21:30.351Z,34.13
2024-03-03T13:26:53.748Z,32.83
2024-03-03T13:29:23.923Z,31.27
2024-03-03T13:31:53.603Z,32.43
2024-03-03T13:34:23.097Z,31.37
2024-03-03T13:36:52.461Z,33.83
2024-03-03T13:39:21.737Z,32.07
2024-03-03T13:41:52.898Z,33.77
2024-03-03T13:44:22.621Z,32.17
2024-03-03T13:46:51.820Z,32.63
2024-03-03T13:49:21.214Z,32.30
2024-03-03T13:51:50.276Z,31.07
2024-03-03T13:54:19.359Z,30.63
2024-03-03T13:56:48.870Z,34.03
2024-03-03T13:59:19.590Z,32.37
2024-03-03T14:01:49.412Z,32.23
2024-03-03T14:04:18.735Z,31.87
2024-03-03T14:06:48.113Z,30.60
2024-03-03T14:09:17.621Z,32.47
2024-03-03T14:11:48.857Z,29.90
2024-03-03T14:14:19.542Z,33.43
2024-03-03T14:16:49.003Z,32.03
2024-03-03T14:19:32.516Z,31.77
2024-03-03T14:22:06.112Z,30.57
2024-03-03T14:24:35.545Z,30.07
2024-03-03T14:27:05.230Z,29.27
2024-03-03T14:29:36.007Z,27.13
2024-03-03T14:32:05.817Z,28.20
2024-03-03T14:34:35.142Z,27.23
2024-03-03T14:37:04.692Z,28.23
2024-03-03T14:39:33.591Z,25.97
2024-03-03T14:42:02.694Z,29.07
2024-03-03T14:44:31.898Z,26.73
2024-03-03T14:47:03.796Z,28.20
2024-03-03T14:49:34.774Z,27.60
2024-03-03T14:52:05.831Z,27.00
2024-03-03T14:54:34.870Z,27.23
2024-03-03T14:57:04.068Z,26.37
2024-03-03T14:59:33.181Z,25.13
2024-03-03T15:02:04.516Z,27.30
2024-03-03T15:04:33.753Z,27.67
2024-03-03T15:07:03.541Z,26.70
2024-03-03T15:09:33.109Z,25.87
2024-03-03T15:12:02.455Z,27.80
2024-03-03T15:14:32.498Z,27.30
2024-03-03T15:17:03.275Z,27.37
2024-03-03T15:19:32.613Z,28.57
2024-03-03T15:22:01.716Z,27.30
2024-03-03T15:24:31.674Z,28.33
2024-03-03T15:27:00.677Z,27.60
2024-03-03T15:29:30.978Z,27.53
2024-03-03T15:32:00.157Z,27.47
2024-03-03T15:34:31.531Z,25.53
2024-03-03T15:37:00.948Z,26.93
2024-03-03T15:39:30.339Z,27.00
2024-03-03T15:41:59.664Z,28.63
2024-03-03T15:44:28.961Z,26.50
2024-03-03T15:46:58.177Z,26.97
2024-03-03T15:49:27.481Z,28.20
2024-03-03T15:51:58.829Z,27.33
2024-03-03T15:54:28.311Z,28.43
2024-03-03T15:56:57.469Z,29.57
2024-03-03T15:59:27.080Z,29.50
2024-03-03T16:01:58.647Z,31.80
2024-03-03T16:04:28.101Z,29.37
2024-03-03T16:06:59.674Z,29.93
2024-03-03T16:09:29.597Z,31.07
2024-03-03T16:11:59.090Z,29.70
2024-03-03T16:14:29.111Z,30.27
2024-03-03T16:16:58.344Z,31.63
2024-03-03T16:19:32.617Z,32.27
2024-03-03T16:22:04.270Z,34.37
2024-03-03T16:24:34.218Z,34.30
2024-03-03T16:27:06.037Z,34.30
2024-03-03T16:29:35.368Z,34.47
2024-03-03T16:32:04.747Z,36.20
2024-03-03T16:34:34.257Z,37.20
2024-03-03T16:37:06.550Z,35.57
2024-03-03T16:39:36.183Z,35.80
2024-03-03T16:42:07.040Z,38.80
2024-03-03T16:44:36.206Z,36.50
2024-03-03T16:47:06.506Z,38.00
2024-03-03T16:49:38.605Z,38.30
2024-03-03T16:52:09.675Z,38.53
2024-03-03T16:54:39.715Z,38.77
2024-03-03T16:57:09.549Z,41.27
2024-03-03T16:59:38.956Z,41.50
2024-03-03T17:02:08.830Z,40.67
2024-03-03T17:04:38.912Z,41.13
2024-03-03T17:07:10.378Z,41.93
2024-03-03T17:09:40.160Z,40.43
2024-03-03T17:12:09.940Z,42.10
2024-03-03T17:14:39.270Z,41.27
2024-03-03T17:17:08.723Z,42.37
2024-03-03T17:19:38.514Z,41.00
2024-03-03T17:22:09.788Z,42.70
2024-03-03T17:24:38.833Z,41.73
2024-03-03T17:27:08.881Z,42.00
2024-03-03T17:29:39.019Z,42.97
2024-03-03T17:32:10.453Z,43.40
2024-03-03T17:34:40.728Z,43.07
2024-03-03T17:37:12.471Z,42.90
2024-03-03T17:39:42.245Z,43.83
2024-03-03T17:42:11.354Z,43.87
2024-03-03T17:44:40.865Z,43.70
2024-03-03T17:47:10.886Z,44.67
2024-03-03T17:49:40.649Z,43.60
2024-03-03T17:52:11.378Z,45.00
2024-03-03T17:54:41.004Z,44.17
2024-03-03T17:57:10.269Z,45.43
2024-03-03T17:59:39.722Z,44.30
2024-03-03T18:02:09.089Z,43.27
2024-03-03T18:04:38.134Z,45.10
2024-03-03T18:07:08.033Z,45.47
2024-03-03T18:09:40.418Z,46.63
2024-03-03T18:12:10.438Z,44.60
2024-03-03T18:14:39.367Z,45.30
2024-03-03T18:17:09.335Z,45.27
2024-03-03T18:19:53.522Z,43.77
2024-03-03T18:22:23.469Z,43.93
2024-03-03T18:24:55.657Z,46.50
2024-03-03T18:27:26.132Z,44.73
2024-03-03T18:29:55.636Z,46.90
2024-03-03T18:32:25.226Z,45.13
2024-03-03T18:34:54.973Z,45.73
2024-03-03T18:37:25.068Z,47.67
2024-03-03T18:39:57.166Z,45.70
2024-03-03T18:42:26.558Z,46.30
2024-03-03T18:44:57.836Z,42.90
2024-03-03T18:47:26.841Z,46.60
2024-03-03T18:49:57.910Z,44.60
2024-03-03T18:52:27.552Z,46.23
2024-03-03T18:55:00.438Z,46.43
2024-03-03T18:57:31.534Z,44.27
2024-03-03T19:00:01.386Z,42.60
2024-03-03T19:02:30.502Z,41.70
2024-03-03T19:05:00.515Z,45.20
2024-03-03T19:07:31.909Z,44.77
2024-03-03T19:10:02.957Z,44.23
2024-03-03T19:12:32.453Z,42.77
2024-03-03T19:15:02.158Z,41.57
2024-03-03T19:17:31.714Z,42.97
2024-03-03T19:20:01.236Z,43.50
2024-03-03T19:22:30.782Z,43.37
2024-03-03T19:25:02.017Z,42.90
2024-03-03T19:27:31.745Z,42.27
2024-03-03T19:30:01.399Z,41.60
2024-03-03T19:32:30.897Z,42.07
2024-03-03T19:35:01.044Z,44.83
2024-03-03T19:37:30.797Z,43.77
2024-03-03T19:40:01.524Z,44.73
2024-03-03T19:42:36.034Z,43.63
2024-03-03T19:45:07.105Z,44.47
2024-03-03T19:47:36.929Z,44.40
2024-03-03T19:50:10.319Z,42.53
2024-03-03T19:52:39.941Z,44.90
2024-03-03T19:55:11.444Z,42.03
2024-03-03T19:57:41.482Z,40.87
2024-03-03T20:00:16.450Z,40.50
2024-03-03T20:02:46.476Z,42.50
2024-03-03T20:05:16.432Z,41.60
2024-03-03T20:07:46.165Z,43.50
2024-03-03T20:10:17.578Z,41.00
2024-03-03T20:12:53.082Z,41.67
2024-03-03T20:15:25.285Z,41.27
2024-03-03T20:17:55.130Z,38.83
2024-03-03T20:20:25.762Z,39.67
2024-03-03T20:22:55.337Z,41.77
2024-03-03T20:25:26.768Z,39.87
2024-03-03T20:27:56.587Z,38.60
2024-03-03T20:30:26.686Z,41.37
2024-03-03T20:32:56.145Z,41.87
2024-03-03T20:35:26.283Z,39.80
2024-03-03T20:37:57.310Z,39.93
2024-03-03T20:40:28.154Z,38.60
2024-03-03T20:42:57.491Z,39.93
2024-03-03T20:45:27.602Z,39.43
2024-03-03T20:47:56.855Z,39.13
2024-03-03T20:50:27.234Z,39.20
2024-03-03T20:52:56.792Z,38.53
2024-03-03T20:55:27.510Z,39.10
2024-03-03T20:57:58.222Z,38.47
2024-03-03T21:00:28.401Z,37.57
2024-03-03T21:02:58.787Z,40.77
2024-03-03T21:05:30.364Z,38.37
2024-03-03T21:08:00.036Z,38.17
2024-03-03T21:10:31.434Z,37.10
2024-03-03T21:13:01.015Z,40.27
2024-03-03T21:15:30.817Z,38.30
2024-03-03T21:18:00.250Z,37.60
2024-03-03T21:20:29.447Z,38.90
2024-03-03T21:22:58.642Z,38.70
2024-03-03T21:25:27.882Z,38.73
2024-03-03T21:27:58.915Z,39.90
2024-03-03T21:30:29.934Z,38.70
2024-03-03T21:33:01.748Z,38.67
2024-03-03T21:35:30.827Z,38.23
2024-03-03T21:38:00.940Z,39.23
2024-03-03T21:40:35.782Z,41.03
2024-03-03T21:43:11.145Z,39.93
2024-03-03T21:45:42.301Z,40.23
2024-03-03T21:48:13.103Z,39.67
2024-03-03T21:50:45.012Z,40.07
2024-03-03T21:53:14.430Z,38.63
2024-03-03T21:55:45.753Z,39.00
2024-03-03T21:58:16.676Z,40.83
2024-03-03T22:00:46.311Z,39.90
2024-03-03T22:03:15.702Z,40.47
2024-03-03T22:05:45.216Z,38.27
2024-03-03T22:08:13.630Z,38.50
2024-03-03T22:10:42.717Z,39.27
2024-03-03T22:13:12.136Z,38.60
2024-03-03T22:15:43.284Z,39.30
2024-03-03T22:18:12.549Z,39.83
2024-03-03T22:20:44.514Z,37.87
2024-03-03T22:23:14.897Z,37.57
2024-03-03T22:25:44.545Z,37.90
2024-03-03T22:28:13.818Z,38.50
2024-03-03T22:30:46.599Z,39.60
2024-03-03T22:33:16.207Z,37.60
2024-03-03T22:35:45.707Z,36.30
2024-03-03T22:38:15.122Z,38.10
2024-03-03T22:40:44.557Z,36.63
2024-03-03T22:43:14.061Z,34.97
2024-03-03T22:45:44.619Z,35.10
2024-03-03T22:48:14.010Z,36.47
2024-03-03T22:50:43.082Z,35.10
2024-03-03T22:53:12.525Z,36.30
2024-03-03T22:55:42.696Z,34.13
2024-03-03T22:58:12.610Z,37.20
2024-03-03T23:00:43.327Z,34.97
2024-03-03T23:03:12.860Z,35.33
2024-03-03T23:05:42.086Z,35.07
2024-03-03T23:08:12.051Z,35.40
2024-03-03T23:10:41.416Z,35.53
2024-03-03T23:13:11.243Z,35.40
2024-03-03T23:15:40.384Z,36.03
2024-03-03T23:18:11.153Z,36.70
2024-03-03T23:20:40.477Z,32.27
2024-03-03T23:23:09.639Z,34.27
2024-03-03T23:25:39.204Z,32.50
2024-03-03T23:28:08.633Z,33.23
2024-03-03T23:30:38.276Z,35.30
2024-03-03T23:33:07.895Z,33.57
2024-03-03T23:35:38.342Z,33.17
2024-03-03T23:38:10.305Z,32.50
2024-03-03T23:40:39.868Z,32.17
2024-03-03T23:43:09.179Z,34.40
2024-03-03T23:45:38.384Z,32.77
2024-03-03T23:48:09.066Z,34.70
2024-03-03T23:50:39.984Z,34.67
2024-03-03T23:53:09.868Z,34.07
2024-03-03T23:55:39.139Z,34.73
2024-03-03T23:58:08.816Z,32.30
